sensor_id;sensor_type;location;lat;lon;timestamp;P1;P2;P0
44045;PMS7003;29709;52.396;16.796;2023-03-29T00:01:07;5;3;2
44045;PMS7003;29709;52.396;16.796;2023-03-29T00:04:21;26;22;16
44045;PMS7003;29709;52.396;16.796;2023-03-29T00:07:35;24;19;15
44045;PMS7003;29709;52.396;16.796;2023-03-29T00:10:48;18;16;10
44045;PMS7003;29709;52.396;16.796;2023-03-29T00:14:03;26;22;16
44045;PMS7003;29709;52.396;16.796;2023-03-29T00:17:17;23;21;14
44045;PMS7003;29709;52.396;16.796;2023-03-29T00:20:30;33;27;18
44045;PMS7003;29709;52.396;16.796;2023-03-29T00:23:43;23;21;16
44045;PMS7003;29709;52.396;16.796;2023-03-29T00:26:57;29;22;16
44045;PMS7003;29709;52.396;16.796;2023-03-29T00:30:10;20;19;14
44045;PMS7003;29709;52.396;16.796;2023-03-29T00:33:26;28;27;19
44045;PMS7003;29709;52.396;16.796;2023-03-29T00:36:39;27;23;15
44045;PMS7003;29709;52.396;16.796;2023-03-29T00:39:55;26;23;18
44045;PMS7003;29709;52.396;16.796;2023-03-29T00:43:12;30;25;18
44045;PMS7003;29709;52.396;16.796;2023-03-29T00:46:27;23;23;17
44045;PMS7003;29709;52.396;16.796;2023-03-29T00:49:43;26;22;15
44045;PMS7003;29709;52.396;16.796;2023-03-29T00:56:28;27;23;17
44045;PMS7003;29709;52.396;16.796;2023-03-29T00:59:49;22;18;11
44045;PMS7003;29709;52.396;16.796;2023-03-29T01:03:07;23;21;15
44045;PMS7003;29709;52.396;16.796;2023-03-29T01:06:26;24;20;15
44045;PMS7003;29709;52.396;16.796;2023-03-29T01:09:46;14;10;9
44045;PMS7003;29709;52.396;16.796;2023-03-29T01:13:07;21;21;14
44045;PMS7003;29709;52.396;16.796;2023-03-29T01:16:25;19;16;12
44045;PMS7003;29709;52.396;16.796;2023-03-29T01:19:46;20;15;9
44045;PMS7003;29709;52.396;16.796;2023-03-29T01:26:41;17;14;10
44045;PMS7003;29709;52.396;16.796;2023-03-29T01:30:01;20;18;13
44045;PMS7003;29709;52.396;16.796;2023-03-29T01:33:21;19;15;11
44045;PMS7003;29709;52.396;16.796;2023-03-29T01:40:10;19;18;13
44045;PMS7003;29709;52.396;16.796;2023-03-29T01:43:29;19;17;12
44045;PMS7003;29709;52.396;16.796;2023-03-29T01:46:53;13;10;7
44045;PMS7003;29709;52.396;16.796;2023-03-29T01:57:04;19;18;12
44045;PMS7003;29709;52.396;16.796;2023-03-29T02:00:23;18;15;10
44045;PMS7003;29709;52.396;16.796;2023-03-29T02:03:40;18;16;10
44045;PMS7003;29709;52.396;16.796;2023-03-29T02:06:56;14;12;9
44045;PMS7003;29709;52.396;16.796;2023-03-29T02:10:13;17;15;11
44045;PMS7003;29709;52.396;16.796;2023-03-29T02:13:28;19;16;11
44045;PMS7003;29709;52.396;16.796;2023-03-29T02:16:41;13;12;8
44045;PMS7003;29709;52.396;16.796;2023-03-29T02:23:34;14;12;9
44045;PMS7003;29709;52.396;16.796;2023-03-29T02:26:52;16;15;11
44045;PMS7003;29709;52.396;16.796;2023-03-29T02:30:06;15;15;9
44045;PMS7003;29709;52.396;16.796;2023-03-29T02:40:10;17;15;10
44045;PMS7003;29709;52.396;16.796;2023-03-29T02:43:26;18;14;10
44045;PMS7003;29709;52.396;16.796;2023-03-29T02:46:41;21;16;12
44045;PMS7003;29709;52.396;16.796;2023-03-29T02:49:55;23;18;13
44045;PMS7003;29709;52.396;16.796;2023-03-29T02:53:11;22;16;8
44045;PMS7003;29709;52.396;16.796;2023-03-29T02:56:29;22;16;12
44045;PMS7003;29709;52.396;16.796;2023-03-29T02:59:43;16;14;10
44045;PMS7003;29709;52.396;16.796;2023-03-29T03:02:56;20;17;13
44045;PMS7003;29709;52.396;16.796;2023-03-29T03:06:09;16;11;9
44045;PMS7003;29709;52.396;16.796;2023-03-29T03:09:24;23;17;13
44045;PMS7003;29709;52.396;16.796;2023-03-29T03:12:38;17;17;12
44045;PMS7003;29709;52.396;16.796;2023-03-29T03:15:52;14;14;11
44045;PMS7003;29709;52.396;16.796;2023-03-29T03:19:06;19;15;9
44045;PMS7003;29709;52.396;16.796;2023-03-29T03:22:19;20;17;14
44045;PMS7003;29709;52.396;16.796;2023-03-29T03:25:32;18;17;13
44045;PMS7003;29709;52.396;16.796;2023-03-29T03:28:47;27;21;14
44045;PMS7003;29709;52.396;16.796;2023-03-29T03:32:00;32;26;18
44045;PMS7003;29709;52.396;16.796;2023-03-29T03:35:13;34;30;20
44045;PMS7003;29709;52.396;16.796;2023-03-29T03:38:28;33;30;20
44045;PMS7003;29709;52.396;16.796;2023-03-29T03:41:42;29;27;19
44045;PMS7003;29709;52.396;16.796;2023-03-29T03:44:55;42;34;23
44045;PMS7003;29709;52.396;16.796;2023-03-29T03:48:09;37;32;21
44045;PMS7003;29709;52.396;16.796;2023-03-29T03:51:23;26;23;13
44045;PMS7003;29709;52.396;16.796;2023-03-29T03:54:37;47;38;26
44045;PMS7003;29709;52.396;16.796;2023-03-29T03:57:50;49;40;26
44045;PMS7003;29709;52.396;16.796;2023-03-29T04:01:05;47;37;25
44045;PMS7003;29709;52.396;16.796;2023-03-29T04:04:20;44;36;25
44045;PMS7003;29709;52.396;16.796;2023-03-29T04:07:35;46;37;22
44045;PMS7003;29709;52.396;16.796;2023-03-29T04:10:52;43;33;22
44045;PMS7003;29709;52.396;16.796;2023-03-29T04:14:06;33;29;22
44045;PMS7003;29709;52.396;16.796;2023-03-29T04:17:19;46;37;25
44045;PMS7003;29709;52.396;16.796;2023-03-29T04:20:33;45;35;24
44045;PMS7003;29709;52.396;16.796;2023-03-29T04:23:46;41;31;21
44045;PMS7003;29709;52.396;16.796;2023-03-29T04:27:00;44;36;23
44045;PMS7003;29709;52.396;16.796;2023-03-29T04:30:13;38;32;21
44045;PMS7003;29709;52.396;16.796;2023-03-29T04:33:26;44;35;24
44045;PMS7003;29709;52.396;16.796;2023-03-29T04:36:41;36;29;22
44045;PMS7003;29709;52.396;16.796;2023-03-29T04:39:55;43;34;24
44045;PMS7003;29709;52.396;16.796;2023-03-29T04:43:11;38;30;20
44045;PMS7003;29709;52.396;16.796;2023-03-29T04:46:26;40;34;22
44045;PMS7003;29709;52.396;16.796;2023-03-29T04:49:39;30;28;19
44045;PMS7003;29709;52.396;16.796;2023-03-29T04:52:53;35;29;20
44045;PMS7003;29709;52.396;16.796;2023-03-29T04:56:06;24;21;13
44045;PMS7003;29709;52.396;16.796;2023-03-29T04:59:20;33;27;19
44045;PMS7003;29709;52.396;16.796;2023-03-29T05:02:33;20;19;12
44045;PMS7003;29709;52.396;16.796;2023-03-29T05:05:46;30;25;19
44045;PMS7003;29709;52.396;16.796;2023-03-29T05:08:59;34;26;19
44045;PMS7003;29709;52.396;16.796;2023-03-29T05:12:12;40;35;24
44045;PMS7003;29709;52.396;16.796;2023-03-29T05:15:26;35;30;22
44045;PMS7003;29709;52.396;16.796;2023-03-29T05:18:39;39;33;24
44045;PMS7003;29709;52.396;16.796;2023-03-29T05:21:52;47;36;24
44045;PMS7003;29709;52.396;16.796;2023-03-29T05:25:06;39;32;23
44045;PMS7003;29709;52.396;16.796;2023-03-29T05:28:22;21;15;10
44045;PMS7003;29709;52.396;16.796;2023-03-29T05:31:35;32;29;18
44045;PMS7003;29709;52.396;16.796;2023-03-29T05:34:51;34;30;20
44045;PMS7003;29709;52.396;16.796;2023-03-29T05:38:04;38;26;19
44045;PMS7003;29709;52.396;16.796;2023-03-29T05:41:18;29;27;20
44045;PMS7003;29709;52.396;16.796;2023-03-29T05:44:31;22;15;6
44045;PMS7003;29709;52.396;16.796;2023-03-29T05:47:44;30;25;18
44045;PMS7003;29709;52.396;16.796;2023-03-29T05:50:58;37;28;19
44045;PMS7003;29709;52.396;16.796;2023-03-29T05:54:11;24;20;14
44045;PMS7003;29709;52.396;16.796;2023-03-29T05:57:24;29;24;17
44045;PMS7003;29709;52.396;16.796;2023-03-29T06:00:39;17;15;12
44045;PMS7003;29709;52.396;16.796;2023-03-29T06:03:54;20;17;13
44045;PMS7003;29709;52.396;16.796;2023-03-29T06:07:09;17;16;12
44045;PMS7003;29709;52.396;16.796;2023-03-29T06:10:24;17;13;8
44045;PMS7003;29709;52.396;16.796;2023-03-29T06:13:37;13;11;9
44045;PMS7003;29709;52.396;16.796;2023-03-29T06:16:51;14;12;10
44045;PMS7003;29709;52.396;16.796;2023-03-29T06:20:05;11;10;8
44045;PMS7003;29709;52.396;16.796;2023-03-29T06:23:23;13;12;8
44045;PMS7003;29709;52.396;16.796;2023-03-29T06:26:36;17;15;11
44045;PMS7003;29709;52.396;16.796;2023-03-29T06:29:49;16;12;8
44045;PMS7003;29709;52.396;16.796;2023-03-29T06:33:03;11;11;9
44045;PMS7003;29709;52.396;16.796;2023-03-29T06:36:18;6;5;2
44045;PMS7003;29709;52.396;16.796;2023-03-29T06:39:32;8;7;4
44045;PMS7003;29709;52.396;16.796;2023-03-29T06:42:45;12;9;7
44045;PMS7003;29709;52.396;16.796;2023-03-29T06:45:59;13;10;8
44045;PMS7003;29709;52.396;16.796;2023-03-29T06:49:13;10;9;7
44045;PMS7003;29709;52.396;16.796;2023-03-29T06:52:26;11;9;7
44045;PMS7003;29709;52.396;16.796;2023-03-29T06:55:40;11;8;6
44045;PMS7003;29709;52.396;16.796;2023-03-29T06:58:53;11;9;6
44045;PMS7003;29709;52.396;16.796;2023-03-29T07:02:07;9;8;6
44045;PMS7003;29709;52.396;16.796;2023-03-29T07:05:26;9;6;5
44045;PMS7003;29709;52.396;16.796;2023-03-29T07:08:43;5;4;3
44045;PMS7003;29709;52.396;16.796;2023-03-29T07:11:58;13;7;6
44045;PMS7003;29709;52.396;16.796;2023-03-29T07:15:12;9;6;4
44045;PMS7003;29709;52.396;16.796;2023-03-29T07:18:27;15;13;11
44045;PMS7003;29709;52.396;16.796;2023-03-29T07:21:40;10;8;6
44045;PMS7003;29709;52.396;16.796;2023-03-29T07:24:53;7;7;4
44045;PMS7003;29709;52.396;16.796;2023-03-29T07:28:07;7;7;5
44045;PMS7003;29709;52.396;16.796;2023-03-29T07:31:20;9;6;6
44045;PMS7003;29709;52.396;16.796;2023-03-29T07:34:33;10;9;7
44045;PMS7003;29709;52.396;16.796;2023-03-29T07:38:21;7;7;6
44045;PMS7003;29709;52.396;16.796;2023-03-29T07:41:34;9;7;5
44045;PMS7003;29709;52.396;16.796;2023-03-29T07:44:48;11;9;7
44045;PMS7003;29709;52.396;16.796;2023-03-29T07:48:02;0;0;0
44045;PMS7003;29709;52.396;16.796;2023-03-29T07:51:16;6;6;4
44045;PMS7003;29709;52.396;16.796;2023-03-29T07:54:29;7;6;3
44045;PMS7003;29709;52.396;16.796;2023-03-29T07:57:44;9;6;5
44045;PMS7003;29709;52.396;16.796;2023-03-29T08:00:58;11;9;7
44045;PMS7003;29709;52.396;16.796;2023-03-29T08:04:14;8;8;6
44045;PMS7003;29709;52.396;16.796;2023-03-29T08:07:29;8;6;4
44045;PMS7003;29709;52.396;16.796;2023-03-29T08:10:43;11;9;7
44045;PMS7003;29709;52.396;16.796;2023-03-29T08:13:56;10;7;6
44045;PMS7003;29709;52.396;16.796;2023-03-29T08:17:11;9;9;7
44045;PMS7003;29709;52.396;16.796;2023-03-29T08:20:24;7;7;5
44045;PMS7003;29709;52.396;16.796;2023-03-29T08:23:37;7;6;3
44045;PMS7003;29709;52.396;16.796;2023-03-29T08:26:50;12;11;8
44045;PMS7003;29709;52.396;16.796;2023-03-29T08:30:04;11;9;6
44045;PMS7003;29709;52.396;16.796;2023-03-29T08:33:20;13;11;8
44045;PMS7003;29709;52.396;16.796;2023-03-29T08:36:34;11;10;7
44045;PMS7003;29709;52.396;16.796;2023-03-29T08:39:47;8;7;6
44045;PMS7003;29709;52.396;16.796;2023-03-29T08:49:54;9;7;5
44045;PMS7003;29709;52.396;16.796;2023-03-29T08:53:16;4;3;3
44045;PMS7003;29709;52.396;16.796;2023-03-29T08:56:36;6;5;4
44045;PMS7003;29709;52.396;16.796;2023-03-29T08:59:52;8;8;6
44045;PMS7003;29709;52.396;16.796;2023-03-29T09:03:14;5;4;4
44045;PMS7003;29709;52.396;16.796;2023-03-29T09:06:34;8;5;3
44045;PMS7003;29709;52.396;16.796;2023-03-29T09:09:48;5;3;2
44045;PMS7003;29709;52.396;16.796;2023-03-29T09:13:12;3;1;1
44045;PMS7003;29709;52.396;16.796;2023-03-29T09:16:36;7;6;4
44045;PMS7003;29709;52.396;16.796;2023-03-29T09:20:02;5;4;3
44045;PMS7003;29709;52.396;16.796;2023-03-29T09:26:51;3;2;1
44045;PMS7003;29709;52.396;16.796;2023-03-29T09:33:41;7;4;3
44045;PMS7003;29709;52.396;16.796;2023-03-29T09:37:02;3;3;2
44045;PMS7003;29709;52.396;16.796;2023-03-29T09:43:51;7;3;2
44045;PMS7003;29709;52.396;16.796;2023-03-29T09:47:07;6;3;3
44045;PMS7003;29709;52.396;16.796;2023-03-29T09:50:35;6;4;3
44045;PMS7003;29709;52.396;16.796;2023-03-29T09:53:51;3;1;1
44045;PMS7003;29709;52.396;16.796;2023-03-29T09:57:11;5;3;3
44045;PMS7003;29709;52.396;16.796;2023-03-29T10:00:27;6;5;4
44045;PMS7003;29709;52.396;16.796;2023-03-29T10:03:46;2;1;0
44045;PMS7003;29709;52.396;16.796;2023-03-29T10:07:07;4;3;2
44045;PMS7003;29709;52.396;16.796;2023-03-29T10:10:27;4;2;2
44045;PMS7003;29709;52.396;16.796;2023-03-29T10:13:45;6;2;2
44045;PMS7003;29709;52.396;16.796;2023-03-29T10:17:03;5;4;3
44045;PMS7003;29709;52.396;16.796;2023-03-29T10:20:23;7;4;3
44045;PMS7003;29709;52.396;16.796;2023-03-29T10:23:36;9;4;3
44045;PMS7003;29709;52.396;16.796;2023-03-29T10:26:50;5;3;2
44045;PMS7003;29709;52.396;16.796;2023-03-29T10:30:09;5;4;2
44045;PMS7003;29709;52.396;16.796;2023-03-29T10:33:31;4;3;2
44045;PMS7003;29709;52.396;16.796;2023-03-29T10:43:41;7;5;3
44045;PMS7003;29709;52.396;16.796;2023-03-29T10:50:31;5;4;3
44045;PMS7003;29709;52.396;16.796;2023-03-29T10:53:46;3;2;1
44045;PMS7003;29709;52.396;16.796;2023-03-29T10:57:00;6;5;4
44045;PMS7003;29709;52.396;16.796;2023-03-29T11:10:57;6;3;2
44045;PMS7003;29709;52.396;16.796;2023-03-29T11:27:51;2;2;1
44045;PMS7003;29709;52.396;16.796;2023-03-29T11:41:26;5;3;2
44045;PMS7003;29709;52.396;16.796;2023-03-29T11:44:47;6;6;4
44045;PMS7003;29709;52.396;16.796;2023-03-29T11:48:05;3;3;2
44045;PMS7003;29709;52.396;16.796;2023-03-29T11:51:33;3;3;1
44045;PMS7003;29709;52.396;16.796;2023-03-29T11:54:55;3;3;2
44045;PMS7003;29709;52.396;16.796;2023-03-29T12:01:45;4;3;3
44045;PMS7003;29709;52.396;16.796;2023-03-29T12:08:30;5;4;3
44045;PMS7003;29709;52.396;16.796;2023-03-29T12:11:53;4;4;2
44045;PMS7003;29709;52.396;16.796;2023-03-29T12:15:15;4;2;2
44045;PMS7003;29709;52.396;16.796;2023-03-29T12:18:35;6;5;4
44045;PMS7003;29709;52.396;16.796;2023-03-29T12:21:53;3;2;1
44045;PMS7003;29709;52.396;16.796;2023-03-29T12:25:09;5;3;2
44045;PMS7003;29709;52.396;16.796;2023-03-29T12:28:43;4;2;2
44045;PMS7003;29709;52.396;16.796;2023-03-29T12:38:45;6;5;3
44045;PMS7003;29709;52.396;16.796;2023-03-29T12:42:11;10;7;3
44045;PMS7003;29709;52.396;16.796;2023-03-29T12:48:54;5;3;2
44045;PMS7003;29709;52.396;16.796;2023-03-29T13:02:32;4;3;2
44045;PMS7003;29709;52.396;16.796;2023-03-29T13:05:57;5;5;3
44045;PMS7003;29709;52.396;16.796;2023-03-29T13:22:54;7;6;5
44045;PMS7003;29709;52.396;16.796;2023-03-29T13:39:56;3;2;1
44045;PMS7003;29709;52.396;16.796;2023-03-29T13:43:18;6;5;4
44045;PMS7003;29709;52.396;16.796;2023-03-29T13:49:56;5;4;3
44045;PMS7003;29709;52.396;16.796;2023-03-29T13:53:14;5;4;3
44045;PMS7003;29709;52.396;16.796;2023-03-29T14:03:32;4;3;2
44045;PMS7003;29709;52.396;16.796;2023-03-29T14:06:56;9;7;5
44045;PMS7003;29709;52.396;16.796;2023-03-29T14:10:13;9;7;5
44045;PMS7003;29709;52.396;16.796;2023-03-29T14:13:29;5;3;1
44045;PMS7003;29709;52.396;16.796;2023-03-29T14:16:43;3;3;2
44045;PMS7003;29709;52.396;16.796;2023-03-29T14:19:57;7;6;5
44045;PMS7003;29709;52.396;16.796;2023-03-29T14:23:14;3;3;2
44045;PMS7003;29709;52.396;16.796;2023-03-29T14:26:33;3;2;1
44045;PMS7003;29709;52.396;16.796;2023-03-29T14:29:48;5;4;3
44045;PMS7003;29709;52.396;16.796;2023-03-29T14:33:03;3;2;1
44045;PMS7003;29709;52.396;16.796;2023-03-29T14:36:16;3;2;1
44045;PMS7003;29709;52.396;16.796;2023-03-29T14:39:33;3;3;2
44045;PMS7003;29709;52.396;16.796;2023-03-29T14:42:48;4;3;2
44045;PMS7003;29709;52.396;16.796;2023-03-29T14:46:03;2;2;1
44045;PMS7003;29709;52.396;16.796;2023-03-29T14:49:18;3;2;1
44045;PMS7003;29709;52.396;16.796;2023-03-29T14:52:34;4;3;3
44045;PMS7003;29709;52.396;16.796;2023-03-29T14:55:49;4;4;3
44045;PMS7003;29709;52.396;16.796;2023-03-29T14:59:18;4;4;2
44045;PMS7003;29709;52.396;16.796;2023-03-29T15:02:30;4;1;1
44045;PMS7003;29709;52.396;16.796;2023-03-29T15:05:52;7;4;3
44045;PMS7003;29709;52.396;16.796;2023-03-29T15:09:13;5;4;3
44045;PMS7003;29709;52.396;16.796;2023-03-29T15:12:31;7;4;3
44045;PMS7003;29709;52.396;16.796;2023-03-29T15:15:45;3;2;1
44045;PMS7003;29709;52.396;16.796;2023-03-29T15:19:02;2;1;1
44045;PMS7003;29709;52.396;16.796;2023-03-29T15:22:16;3;2;2
44045;PMS7003;29709;52.396;16.796;2023-03-29T15:28:59;5;4;2
44045;PMS7003;29709;52.396;16.796;2023-03-29T15:32:21;5;4;4
44045;PMS7003;29709;52.396;16.796;2023-03-29T15:35:36;1;1;0
44045;PMS7003;29709;52.396;16.796;2023-03-29T15:38:49;3;2;2
44045;PMS7003;29709;52.396;16.796;2023-03-29T15:42:03;5;5;2
44045;PMS7003;29709;52.396;16.796;2023-03-29T15:45:18;2;0;0
44045;PMS7003;29709;52.396;16.796;2023-03-29T15:48:33;3;2;2
44045;PMS7003;29709;52.396;16.796;2023-03-29T15:51:46;0;0;0
44045;PMS7003;29709;52.396;16.796;2023-03-29T15:55:00;2;2;1
44045;PMS7003;29709;52.396;16.796;2023-03-29T15:58:15;0;0;0
44045;PMS7003;29709;52.396;16.796;2023-03-29T16:01:35;0;0;0
44045;PMS7003;29709;52.396;16.796;2023-03-29T16:04:50;0;0;0
44045;PMS7003;29709;52.396;16.796;2023-03-29T16:08:03;0;0;0
44045;PMS7003;29709;52.396;16.796;2023-03-29T16:11:16;1;0;0
44045;PMS7003;29709;52.396;16.796;2023-03-29T16:14:30;0;0;0
44045;PMS7003;29709;52.396;16.796;2023-03-29T16:17:43;2;0;0
44045;PMS7003;29709;52.396;16.796;2023-03-29T16:20:56;1;1;0
44045;PMS7003;29709;52.396;16.796;2023-03-29T16:24:16;1;1;0
44045;PMS7003;29709;52.396;16.796;2023-03-29T16:27:31;3;2;1
44045;PMS7003;29709;52.396;16.796;2023-03-29T16:30:44;1;1;1
44045;PMS7003;29709;52.396;16.796;2023-03-29T16:33:58;3;2;2
44045;PMS7003;29709;52.396;16.796;2023-03-29T16:37:11;6;4;3
44045;PMS7003;29709;52.396;16.796;2023-03-29T16:40:25;14;12;8
44045;PMS7003;29709;52.396;16.796;2023-03-29T16:43:39;11;7;7
44045;PMS7003;29709;52.396;16.796;2023-03-29T16:46:52;5;4;3
44045;PMS7003;29709;52.396;16.796;2023-03-29T16:50:13;10;8;6
44045;PMS7003;29709;52.396;16.796;2023-03-29T16:53:32;2;2;1
44045;PMS7003;29709;52.396;16.796;2023-03-29T16:56:46;1;0;0
44045;PMS7003;29709;52.396;16.796;2023-03-29T17:00:00;5;5;4
44045;PMS7003;29709;52.396;16.796;2023-03-29T17:03:14;5;5;4
44045;PMS7003;29709;52.396;16.796;2023-03-29T17:06:28;5;2;2
44045;PMS7003;29709;52.396;16.796;2023-03-29T17:09:44;2;2;1
44045;PMS7003;29709;52.396;16.796;2023-03-29T17:12:58;6;4;3
44045;PMS7003;29709;52.396;16.796;2023-03-29T17:16:11;7;6;5
44045;PMS7003;29709;52.396;16.796;2023-03-29T17:19:24;6;5;3
44045;PMS7003;29709;52.396;16.796;2023-03-29T17:22:38;5;4;3
44045;PMS7003;29709;52.396;16.796;2023-03-29T17:25:54;4;4;4
44045;PMS7003;29709;52.396;16.796;2023-03-29T17:29:08;5;3;2
44045;PMS7003;29709;52.396;16.796;2023-03-29T17:32:21;5;3;3
44045;PMS7003;29709;52.396;16.796;2023-03-29T17:35:34;5;4;3
44045;PMS7003;29709;52.396;16.796;2023-03-29T17:38:48;6;3;3
44045;PMS7003;29709;52.396;16.796;2023-03-29T17:42:03;2;2;2
44045;PMS7003;29709;52.396;16.796;2023-03-29T17:45:17;4;4;2
44045;PMS7003;29709;52.396;16.796;2023-03-29T17:48:31;4;2;2
44045;PMS7003;29709;52.396;16.796;2023-03-29T17:51:45;3;3;2
44045;PMS7003;29709;52.396;16.796;2023-03-29T17:54:58;4;4;3
44045;PMS7003;29709;52.396;16.796;2023-03-29T17:58:12;5;3;2
44045;PMS7003;29709;52.396;16.796;2023-03-29T18:01:25;5;5;4
44045;PMS7003;29709;52.396;16.796;2023-03-29T18:04:42;6;6;4
44045;PMS7003;29709;52.396;16.796;2023-03-29T18:07:55;5;5;4
44045;PMS7003;29709;52.396;16.796;2023-03-29T18:11:10;6;5;4
44045;PMS7003;29709;52.396;16.796;2023-03-29T18:17:50;8;7;5
44045;PMS7003;29709;52.396;16.796;2023-03-29T18:21:03;6;5;4
44045;PMS7003;29709;52.396;16.796;2023-03-29T18:24:23;3;3;2
44045;PMS7003;29709;52.396;16.796;2023-03-29T18:27:37;5;4;3
44045;PMS7003;29709;52.396;16.796;2023-03-29T18:30:51;8;5;4
44045;PMS7003;29709;52.396;16.796;2023-03-29T18:34:04;6;4;2
44045;PMS7003;29709;52.396;16.796;2023-03-29T18:37:17;10;8;6
44045;PMS7003;29709;52.396;16.796;2023-03-29T18:40:32;10;6;5
44045;PMS7003;29709;52.396;16.796;2023-03-29T18:43:46;9;3;2
44045;PMS7003;29709;52.396;16.796;2023-03-29T18:46:59;11;10;7
44045;PMS7003;29709;52.396;16.796;2023-03-29T18:50:13;10;8;7
44045;PMS7003;29709;52.396;16.796;2023-03-29T18:53:26;8;8;6
44045;PMS7003;29709;52.396;16.796;2023-03-29T18:56:40;9;7;5
44045;PMS7003;29709;52.396;16.796;2023-03-29T18:59:53;10;7;5
44045;PMS7003;29709;52.396;16.796;2023-03-29T19:03:08;6;4;2
44045;PMS7003;29709;52.396;16.796;2023-03-29T19:06:21;9;8;6
44045;PMS7003;29709;52.396;16.796;2023-03-29T19:09:34;8;6;4
44045;PMS7003;29709;52.396;16.796;2023-03-29T19:12:47;13;10;8
44045;PMS7003;29709;52.396;16.796;2023-03-29T19:16:01;11;11;8
44045;PMS7003;29709;52.396;16.796;2023-03-29T19:19:15;10;8;6
44045;PMS7003;29709;52.396;16.796;2023-03-29T19:22:28;12;7;5
44045;PMS7003;29709;52.396;16.796;2023-03-29T19:25:42;12;12;8
44045;PMS7003;29709;52.396;16.796;2023-03-29T19:29:04;14;9;5
44045;PMS7003;29709;52.396;16.796;2023-03-29T19:32:17;10;8;5
44045;PMS7003;29709;52.396;16.796;2023-03-29T19:35:31;9;7;5
44045;PMS7003;29709;52.396;16.796;2023-03-29T19:38:44;6;5;3
44045;PMS7003;29709;52.396;16.796;2023-03-29T19:41:57;5;4;4
44045;PMS7003;29709;52.396;16.796;2023-03-29T19:45:11;7;6;4
44045;PMS7003;29709;52.396;16.796;2023-03-29T19:48:24;9;6;5
44045;PMS7003;29709;52.396;16.796;2023-03-29T19:51:37;11;10;7
44045;PMS7003;29709;52.396;16.796;2023-03-29T19:54:51;9;7;5
44045;PMS7003;29709;52.396;16.796;2023-03-29T19:58:05;7;4;3
44045;PMS7003;29709;52.396;16.796;2023-03-29T20:01:19;11;10;7
44045;PMS7003;29709;52.396;16.796;2023-03-29T20:04:33;8;7;5
44045;PMS7003;29709;52.396;16.796;2023-03-29T20:07:46;4;4;2
44045;PMS7003;29709;52.396;16.796;2023-03-29T20:11:02;7;5;4
44045;PMS7003;29709;52.396;16.796;2023-03-29T20:14:15;8;7;5
44045;PMS7003;29709;52.396;16.796;2023-03-29T20:17:28;9;7;5
44045;PMS7003;29709;52.396;16.796;2023-03-29T20:20:43;7;4;3
44045;PMS7003;29709;52.396;16.796;2023-03-29T20:23:58;7;3;2
44045;PMS7003;29709;52.396;16.796;2023-03-29T20:27:12;9;7;4
44045;PMS7003;29709;52.396;16.796;2023-03-29T20:30:27;8;6;5
44045;PMS7003;29709;52.396;16.796;2023-03-29T20:33:40;6;4;4
44045;PMS7003;29709;52.396;16.796;2023-03-29T20:36:56;9;7;5
44045;PMS7003;29709;52.396;16.796;2023-03-29T20:40:13;5;4;3
44045;PMS7003;29709;52.396;16.796;2023-03-29T20:43:27;8;8;5
44045;PMS7003;29709;52.396;16.796;2023-03-29T20:46:41;8;7;5
44045;PMS7003;29709;52.396;16.796;2023-03-29T20:50:03;7;7;5
44045;PMS7003;29709;52.396;16.796;2023-03-29T20:53:22;6;3;2
44045;PMS7003;29709;52.396;16.796;2023-03-29T20:56:42;12;8;6
44045;PMS7003;29709;52.396;16.796;2023-03-29T20:59:56;10;9;7
44045;PMS7003;29709;52.396;16.796;2023-03-29T21:03:11;12;8;6
44045;PMS7003;29709;52.396;16.796;2023-03-29T21:06:24;4;3;2
44045;PMS7003;29709;52.396;16.796;2023-03-29T21:09:38;13;9;8
44045;PMS7003;29709;52.396;16.796;2023-03-29T21:12:54;6;5;5
44045;PMS7003;29709;52.396;16.796;2023-03-29T21:16:11;5;5;2
44045;PMS7003;29709;52.396;16.796;2023-03-29T21:19:25;12;8;6
44045;PMS7003;29709;52.396;16.796;2023-03-29T21:22:39;11;10;8
44045;PMS7003;29709;52.396;16.796;2023-03-29T21:25:54;9;8;6
44045;PMS7003;29709;52.396;16.796;2023-03-29T21:29:08;9;8;6
44045;PMS7003;29709;52.396;16.796;2023-03-29T21:32:21;5;4;2
44045;PMS7003;29709;52.396;16.796;2023-03-29T21:35:34;10;9;7
44045;PMS7003;29709;52.396;16.796;2023-03-29T21:38:47;12;9;7
44045;PMS7003;29709;52.396;16.796;2023-03-29T21:42:01;9;9;7
44045;PMS7003;29709;52.396;16.796;2023-03-29T21:45:15;8;6;4
44045;PMS7003;29709;52.396;16.796;2023-03-29T21:48:29;12;9;7
44045;PMS7003;29709;52.396;16.796;2023-03-29T21:51:43;13;10;6
44045;PMS7003;29709;52.396;16.796;2023-03-29T21:54:56;9;7;5
44045;PMS7003;29709;52.396;16.796;2023-03-29T21:58:09;14;10;7
44045;PMS7003;29709;52.396;16.796;2023-03-29T22:01:22;12;10;9
44045;PMS7003;29709;52.396;16.796;2023-03-29T22:04:36;10;6;4
44045;PMS7003;29709;52.396;16.796;2023-03-29T22:07:49;15;11;8
44045;PMS7003;29709;52.396;16.796;2023-03-29T22:11:03;14;11;8
44045;PMS7003;29709;52.396;16.796;2023-03-29T22:14:19;13;10;7
44045;PMS7003;29709;52.396;16.796;2023-03-29T22:17:33;12;10;8
44045;PMS7003;29709;52.396;16.796;2023-03-29T22:20:47;16;12;8
44045;PMS7003;29709;52.396;16.796;2023-03-29T22:24:00;8;6;4
44045;PMS7003;29709;52.396;16.796;2023-03-29T22:27:14;8;8;6
44045;PMS7003;29709;52.396;16.796;2023-03-29T22:30:27;11;9;7
44045;PMS7003;29709;52.396;16.796;2023-03-29T22:33:41;9;8;5
44045;PMS7003;29709;52.396;16.796;2023-03-29T22:36:54;10;8;7
44045;PMS7003;29709;52.396;16.796;2023-03-29T22:40:08;10;9;7
44045;PMS7003;29709;52.396;16.796;2023-03-29T22:43:23;12;8;7
44045;PMS7003;29709;52.396;16.796;2023-03-29T22:46:36;6;6;5
44045;PMS7003;29709;52.396;16.796;2023-03-29T22:49:49;13;10;8
44045;PMS7003;29709;52.396;16.796;2023-03-29T22:53:02;11;10;9
44045;PMS7003;29709;52.396;16.796;2023-03-29T22:56:16;10;7;5
44045;PMS7003;29709;52.396;16.796;2023-03-29T22:59:29;8;8;6
44045;PMS7003;29709;52.396;16.796;2023-03-29T23:02:42;11;9;7
44045;PMS7003;29709;52.396;16.796;2023-03-29T23:05:56;9;8;6
44045;PMS7003;29709;52.396;16.796;2023-03-29T23:09:10;9;7;6
44045;PMS7003;29709;52.396;16.796;2023-03-29T23:12:24;11;11;9
44045;PMS7003;29709;52.396;16.796;2023-03-29T23:15:42;12;10;7
44045;PMS7003;29709;52.396;16.796;2023-03-29T23:18:58;11;9;6
44045;PMS7003;29709;52.396;16.796;2023-03-29T23:22:12;11;9;8
44045;PMS7003;29709;52.396;16.796;2023-03-29T23:25:26;12;10;8
44045;PMS7003;29709;52.396;16.796;2023-03-29T23:28:40;10;8;6
44045;PMS7003;29709;52.396;16.796;2023-03-29T23:31:53;8;7;6
44045;PMS7003;29709;52.396;16.796;2023-03-29T23:35:09;10;6;4
44045;PMS7003;29709;52.396;16.796;2023-03-29T23:38:22;13;11;8
44045;PMS7003;29709;52.396;16.796;2023-03-29T23:41:35;12;11;9
44045;PMS7003;29709;52.396;16.796;2023-03-29T23:44:51;12;10;7
44045;PMS7003;29709;52.396;16.796;2023-03-29T23:48:05;11;10;8
44045;PMS7003;29709;52.396;16.796;2023-03-29T23:51:20;13;10;8
44045;PMS7003;29709;52.396;16.796;2023-03-29T23:54:42;11;9;7